Главная страница
METAR-TAF:

METAR-TAF

Аэропорты :

Король Абдул-Азиз

Джидда, Саудовская Аравия

широта: 21-42N, долгота: 039-11E, высота над уровнем моря: 15 м

Текущие метеонаблюдения

Эта сводка был подготовлена 50 минут назад, в 06:00 UTC
Ветер 14 Узел от северно-северо-западный
Температура 33°C
Влажность 41%
Давление 1008 hPa
Видимость 10 км и более
Нет облачности ниже 1500 м, и нет кучево-дождевой облачности

METAR: OEJN 170600Z 34014KT CAVOK 33/18 Q1008 NOSIG

Время: 09:50 (06:50 UTC)

Прогноз

Эта сводка был подготовлена 1 час и 50 минут назад, в 05:00 UTC
Прогноз действительный с 17-го 06 UTC до 18-го 12 UTC
Ветер 16 Узел от северно-северо-западный
Видимость: 8000 м
небольшая облачность на высоте 4000 фута
Отдельные облака на высоте 10000 фута
временами
С 17-го 06 UTC до 17-го 16 UTC
Видимость: 6000 м
Отдельные облака на высоте 4000 фута

TAF: OEJN 170500Z 1706/1812 34016KT 8000 FEW040 SCT100 TEMPO 1706/1716 6000 SCT040

Метеонаблюдения и прогнозы для более 4000 аэропортов (сводки METAR и TAF).

Имеющиеся станции представлены на карте желтыми и красными точками.

Чтобы увидеть название станции, наведите на нее мышь.

Затем щелкните, чтобы увидеть метеонаблюдения и метеопрогнозы.

Управление картой: чтобы увеличить масштаб, щелкните зеленые кнопки с черным крестиком; чтобы уменьшить масштаб, щелкните зеленую кнопку с тире; для просмотра соседних карт щелкайте зеленые стрелки.


METAR-TAF: